MSC Fortunate — 3FLG6 — position and weather

sailwx.info

Track history (hours):
 
Tides and Currents Weather Stations Pressure Air Temp Water Temp Dewpoint Dewpoint Depression Visibility Wind Speed Wind Dir Waves Ship Positions

MSC Fortunate

Last reported at 2014-Sep-17 15:33 UTC. Time now 2014-Sep-19 17:56 UTC.
Position N 31°50' E 034°39'.

Length 275 m; draft 12.9 m.

Type: Ship. MMSI: 356708000.

Date/timePositionNaut miles runAvg speedWind from/ knotsBaromVisibWave heightAir tempDewpointWater temp
2014-Sep-17 15:33N 31°50' E 034°39'0 0.0
2014-Sep-17 14:30N 31°50' E 034°39'0 0.0
2014-Sep-17 13:33N 31°50' E 034°39'0 0.0
2014-Sep-17 08:27N 31°50' E 034°39'25 0.7
2014-Sep-15 22:07N 32°15' E 034°38'915.8
2014-Sep-15 21:33N 32°24' E 034°41'1615.8
2014-Sep-15 20:33N 32°39' E 034°46'1513.7
2014-Sep-15 19:28N 32°53' E 034°53'6 0.1
2014-Sep-14 02:29N 32°55' E 034°47'  
2014-Sep-08 22:23N 35°51' E 015°35'1417.4
2014-Sep-08 21:33N 35°56' E 015°18'3617.8
2014-Sep-08 19:33N 36°11' E 014°38'1817.6
2014-Sep-08 18:33N 36°17' E 014°17'1817.8
2014-Sep-08 17:33N 36°23' E 013°57'1818.3
2014-Sep-08 16:34N 36°29' E 013°35'1818.0
2014-Sep-08 15:33N 36°35' E 013°14'1717.3
2014-Sep-08 14:34N 36°41' E 012°54'1717.1
2014-Sep-08 13:33N 36°47' E 012°34'1716.9
2014-Sep-08 12:33N 36°54' E 012°15'1817.1
2014-Sep-08 11:31N 37°02' E 011°55'1817.3
2014-Sep-08 10:29N 37°11' E 011°35'1617.4
2014-Sep-08 09:33N 37°19' E 011°18'1717.0
2014-Sep-08 08:33N 37°25' E 010°58'1817.7
2014-Sep-08 07:33N 37°29' E 010°36'2417.9
2014-Sep-08 06:11N 37°33' E 010°06'1118.0
2014-Sep-08 05:33N 37°33' E 009°51'1917.8
2014-Sep-08 04:30N 37°35' E 009°28'1818.5
2014-Sep-08 03:33N 37°36' E 009°06'1818.2
2014-Sep-08 02:32N 37°35' E 008°42'1817.8
2014-Sep-08 01:32N 37°33' E 008°20'1817.8
2014-Sep-08 00:32N 37°30' E 007°58'5917.9
2014-Sep-07 21:15N 37°25' E 006°44'1217.3
2014-Sep-07 20:33N 37°23' E 006°29'1817.1
2014-Sep-07 19:30N 37°21' E 006°07'1616.9
2014-Sep-07 18:33N 37°18' E 005°47'2117.1
2014-Sep-07 17:20N 37°16' E 005°21'1417.5
2014-Sep-07 16:33N 37°15' E 005°04'1817.6
2014-Sep-07 15:33N 37°12' E 004°42'  
Track history (hours):
 
Tides and Currents Weather Stations Pressure Air Temp Water Temp Dewpoint Dewpoint Depression Visibility Wind Speed Wind Dir Waves Ship Positions

MSC Fortunate

Last reported at 2014-Sep-17 15:33 UTC. Time now 2014-Sep-19 17:56 UTC.
Position N 31°50' E 034°39'.

Length 275 m; draft 12.9 m.

Type: Ship. MMSI: 356708000.

Date/timePositionNaut miles runAvg speedWind from/ knotsBaromVisibWave heightAir tempDewpointWater temp
2014-Sep-17 15:33N 31°50' E 034°39'0 0.0
2014-Sep-17 14:30N 31°50' E 034°39'0 0.0
2014-Sep-17 13:33N 31°50' E 034°39'0 0.0
2014-Sep-17 08:27N 31°50' E 034°39'25 0.7
2014-Sep-15 22:07N 32°15' E 034°38'915.8
2014-Sep-15 21:33N 32°24' E 034°41'1615.8
2014-Sep-15 20:33N 32°39' E 034°46'1513.7
2014-Sep-15 19:28N 32°53' E 034°53'6 0.1
2014-Sep-14 02:29N 32°55' E 034°47'  
2014-Sep-08 22:23N 35°51' E 015°35'1417.4
2014-Sep-08 21:33N 35°56' E 015°18'3617.8
2014-Sep-08 19:33N 36°11' E 014°38'1817.6
2014-Sep-08 18:33N 36°17' E 014°17'1817.8
2014-Sep-08 17:33N 36°23' E 013°57'1818.3
2014-Sep-08 16:34N 36°29' E 013°35'1818.0
2014-Sep-08 15:33N 36°35' E 013°14'1717.3
2014-Sep-08 14:34N 36°41' E 012°54'1717.1
2014-Sep-08 13:33N 36°47' E 012°34'1716.9
2014-Sep-08 12:33N 36°54' E 012°15'1817.1
2014-Sep-08 11:31N 37°02' E 011°55'1817.3
2014-Sep-08 10:29N 37°11' E 011°35'1617.4
2014-Sep-08 09:33N 37°19' E 011°18'1717.0
2014-Sep-08 08:33N 37°25' E 010°58'1817.7
2014-Sep-08 07:33N 37°29' E 010°36'2417.9
2014-Sep-08 06:11N 37°33' E 010°06'1118.0
2014-Sep-08 05:33N 37°33' E 009°51'1917.8
2014-Sep-08 04:30N 37°35' E 009°28'1818.5
2014-Sep-08 03:33N 37°36' E 009°06'1818.2
2014-Sep-08 02:32N 37°35' E 008°42'1817.8
2014-Sep-08 01:32N 37°33' E 008°20'1817.8
2014-Sep-08 00:32N 37°30' E 007°58'5917.9
2014-Sep-07 21:15N 37°25' E 006°44'1217.3
2014-Sep-07 20:33N 37°23' E 006°29'1817.1
2014-Sep-07 19:30N 37°21' E 006°07'1616.9
2014-Sep-07 18:33N 37°18' E 005°47'2117.1
2014-Sep-07 17:20N 37°16' E 005°21'1417.5
2014-Sep-07 16:33N 37°15' E 005°04'1817.6
2014-Sep-07 15:33N 37°12' E 004°42'  

Dump ship's entire track history